Time;durP1;ratioP1;P1;durP2;ratioP2;P2;SDS_P1;SDS_P2;PMS_P1;PMS_P2;Temp;Humidity;BMP_temperature;BMP_pressure;BME280_temperature;BME280_humidity;BME280_pressure;Samples;Min_cycle;Max_cycle;Signal;HPM_P1;HPM_P2
2021/12/18 07:10:55;;;;;;;14.63;9.77;;;;;;;;;;9193056;28;1294729;-87
2021/12/18 07:15:55;;;;;;;12.25;9.82;;;;;;;;;;10421319;28;20455;-84
2021/12/18 07:20:56;;;;;;;19.73;11.02;;;;;;;;;;10432941;28;20124;-82
2021/12/18 07:25:57;;;;;;;16.95;11.65;;;;;;;;;;10438887;28;20467;-83
2021/12/18 07:30:57;;;;;;;23.23;10.90;;;;;;;;;;10435035;28;20380;-83
2021/12/18 07:35:59;;;;;;;29.65;12.75;;;;;;;;;;10469079;28;20032;-84
2021/12/18 07:40:59;;;;;;;56.13;13.70;;;;;;;;;;10474398;28;20025;-83
2021/12/18 07:45:59;;;;;;;30.20;12.07;;;;;;;;;;10494195;28;20437;-84
2021/12/18 07:51:00;;;;;;;26.67;11.67;;;;;;;;;;10461952;28;20450;-83
2021/12/18 07:56:01;;;;;;;34.92;12.05;;;;;;;;;;10444004;28;20548;-86
2021/12/18 08:01:03;;;;;;;22.50;9.90;;;;;;;;;;10461594;28;20029;-86
2021/12/18 08:06:04;;;;;;;27.13;11.38;;;;;;;;;;10475180;28;20128;-86
2021/12/18 08:11:41;;;;;;;23.95;10.45;;;;;;;;;;10459701;28;20128;-87
2021/12/18 08:16:42;;;;;;;23.80;10.38;;;;;;;;;;10413612;28;20037;-88
2021/12/18 08:21:42;;;;;;;25.33;10.25;;;;;;;;;;10465168;23;20057;-94
2021/12/18 08:26:42;;;;;;;21.58;11.13;;;;;;;;;;10444697;28;20040;-90
2021/12/18 08:31:43;;;;;;;17.53;10.57;;;;;;;;;;10501130;28;20032;-90
2021/12/18 08:36:43;;;;;;;21.08;10.55;;;;;;;;;;10496577;28;20507;-96
2021/12/18 08:41:45;;;;;;;21.20;10.20;;;;;;;;;;10460552;28;20037;-90
2021/12/18 08:46:46;;;;;;;21.90;10.32;;;;;;;;;;10461435;28;20441;-88
2021/12/18 08:51:46;;;;;;;26.23;11.03;;;;;;;;;;10461826;28;20033;-90
2021/12/18 08:56:47;;;;;;;17.38;10.13;;;;;;;;;;10460875;28;20512;-87
2021/12/18 09:01:47;;;;;;;16.65;10.43;;;;;;;;;;10499112;28;20033;-87
2021/12/18 09:12:44;;;;;;;20.38;9.85;;;;;;;;;;10432136;28;20955;-88
2021/12/18 09:17:45;;;;;;;26.75;10.88;;;;;;;;;;10462228;28;20041;-88
2021/12/18 09:22:45;;;;;;;20.67;10.40;;;;;;;;;;10467565;28;20056;-91
2021/12/18 09:28:13;;;;;;;22.42;11.00;;;;;;;;;;10500018;28;20977;-89
2021/12/18 09:45:08;;;;;;;15.73;9.45;;;;;;;;;;10454957;28;20132;-82
2021/12/18 09:50:09;;;;;;;20.88;9.35;;;;;;;;;;10436299;28;20190;-85
2021/12/18 09:55:10;;;;;;;12.98;8.35;;;;;;;;;;10422909;28;20083;-84
2021/12/18 10:00:13;;;;;;;25.98;8.05;;;;;;;;;;10419305;28;20040;-84
2021/12/18 10:05:40;;;;;;;13.48;8.82;;;;;;;;;;10420140;28;20040;-86
2021/12/18 10:22:33;;;;;;;16.95;8.05;;;;;;;;;;10416197;28;20053;-86
2021/12/18 10:27:36;;;;;;;15.13;8.30;;;;;;;;;;10377674;28;20037;-85
2021/12/18 10:32:37;;;;;;;16.02;7.78;;;;;;;;;;10378740;28;20045;-86
2021/12/18 10:37:37;;;;;;;13.18;8.18;;;;;;;;;;10400011;28;20038;-85
2021/12/18 10:42:46;;;;;;;12.37;7.37;;;;;;;;;;10401127;28;20030;-84
2021/12/18 10:47:53;;;;;;;13.13;8.32;;;;;;;;;;10386239;28;20447;-83
2021/12/18 10:53:11;;;;;;;12.55;8.07;;;;;;;;;;10378872;28;20033;-82
2021/12/18 10:58:19;;;;;;;13.13;8.10;;;;;;;;;;10376207;28;20034;-84
2021/12/18 11:03:43;;;;;;;11.30;7.70;;;;;;;;;;10378017;28;20034;-83
2021/12/18 11:09:05;;;;;;;11.30;8.27;;;;;;;;;;10369262;28;20049;-82
2021/12/18 11:14:13;;;;;;;17.10;7.50;;;;;;;;;;10391047;28;20041;-81
2021/12/18 11:19:19;;;;;;;18.50;7.90;;;;;;;;;;10383968;28;20062;-82
2021/12/18 11:24:22;;;;;;;25.00;8.20;;;;;;;;;;10384081;28;20053;-83
2021/12/18 11:29:26;;;;;;;17.10;6.93;;;;;;;;;;10366212;28;20030;-83
2021/12/18 11:34:27;;;;;;;13.07;7.22;;;;;;;;;;10382994;28;20041;-83
2021/12/18 11:39:30;;;;;;;12.00;7.28;;;;;;;;;;10365347;28;20026;-82
2021/12/18 11:44:41;;;;;;;17.48;8.23;;;;;;;;;;10383987;28;20108;-82
2021/12/18 11:49:43;;;;;;;22.75;7.57;;;;;;;;;;10382271;28;20033;-83
2021/12/18 11:54:45;;;;;;;11.80;7.20;;;;;;;;;;10382298;28;20113;-82
2021/12/18 11:59:46;;;;;;;10.43;6.68;;;;;;;;;;10383696;28;20034;-82
2021/12/18 12:04:59;;;;;;;15.45;7.05;;;;;;;;;;10389289;28;20061;-83
2021/12/18 12:10:48;;;;;;;15.77;6.75;;;;;;;;;;10380746;28;20030;-85
2021/12/18 12:15:52;;;;;;;15.05;7.40;;;;;;;;;;10381473;28;20045;-84
2021/12/18 12:20:53;;;;;;;16.30;8.93;;;;;;;;;;10402714;28;20029;-85
2021/12/18 12:26:01;;;;;;;15.65;8.80;;;;;;;;;;10423008;28;20049;-84
2021/12/18 12:31:01;;;;;;;13.88;9.15;;;;;;;;;;10397977;28;20377;-85
2021/12/18 12:36:15;;;;;;;16.20;8.57;;;;;;;;;;10380381;28;20034;-85
2021/12/18 12:41:36;;;;;;;20.92;9.25;;;;;;;;;;10360933;28;20353;-86
2021/12/18 12:46:36;;;;;;;13.90;8.45;;;;;;;;;;10378159;28;20034;-85
2021/12/18 12:52:04;;;;;;;15.20;8.40;;;;;;;;;;10379027;28;20124;-85
2021/12/18 12:57:27;;;;;;;14.25;9.10;;;;;;;;;;10378810;28;20448;-85
2021/12/18 13:02:30;;;;;;;12.68;8.82;;;;;;;;;;10380248;28;20128;-85
2021/12/18 13:07:30;;;;;;;14.93;9.10;;;;;;;;;;10380952;28;20029;-85
2021/12/18 13:12:31;;;;;;;14.55;8.75;;;;;;;;;;10395405;28;20052;-85
2021/12/18 13:17:31;;;;;;;12.35;8.05;;;;;;;;;;10419327;28;20053;-84
2021/12/18 13:22:33;;;;;;;15.03;8.27;;;;;;;;;;10391201;28;20122;-84
2021/12/18 13:27:37;;;;;;;14.18;8.75;;;;;;;;;;10367235;28;20427;-87
2021/12/18 13:32:52;;;;;;;14.10;8.40;;;;;;;;;;10392421;28;20091;-85
2021/12/18 13:38:12;;;;;;;13.20;7.95;;;;;;;;;;10443758;28;20021;-86
2021/12/18 13:43:14;;;;;;;18.15;8.93;;;;;;;;;;10465896;28;20045;-83
2021/12/18 13:48:15;;;;;;;15.10;7.55;;;;;;;;;;10467886;28;20017;-85
2021/12/18 13:53:16;;;;;;;15.18;7.93;;;;;;;;;;10430427;28;20068;-86
2021/12/18 13:58:19;;;;;;;13.43;7.23;;;;;;;;;;10421332;28;20061;-86
2021/12/18 14:03:42;;;;;;;9.77;7.00;;;;;;;;;;10410040;28;20451;-86
2021/12/18 14:08:56;;;;;;;12.88;7.97;;;;;;;;;;10366636;28;20121;-85
2021/12/18 14:13:58;;;;;;;12.23;7.00;;;;;;;;;;10372292;28;20374;-87
2021/12/18 14:19:10;;;;;;;14.73;7.50;;;;;;;;;;10417092;28;20036;-87
2021/12/18 14:24:12;;;;;;;13.80;7.07;;;;;;;;;;10414577;28;20048;-85
2021/12/18 14:29:16;;;;;;;12.13;6.57;;;;;;;;;;10416446;28;20063;-86
2021/12/18 14:34:19;;;;;;;19.05;7.05;;;;;;;;;;10416941;28;20041;-86
2021/12/18 14:39:22;;;;;;;13.63;6.82;;;;;;;;;;10424319;28;20132;-87
2021/12/18 14:44:23;;;;;;;10.77;7.38;;;;;;;;;;10419399;28;20038;-87
2021/12/18 14:49:23;;;;;;;14.25;7.15;;;;;;;;;;10423501;28;20037;-87
2021/12/18 14:54:24;;;;;;;10.90;7.20;;;;;;;;;;10414778;28;20120;-87
2021/12/18 14:59:24;;;;;;;18.03;7.63;;;;;;;;;;10405137;28;20163;-87
2021/12/18 15:04:24;;;;;;;11.00;7.77;;;;;;;;;;10420923;28;20458;-87
2021/12/18 15:09:28;;;;;;;13.05;7.40;;;;;;;;;;10423320;28;20152;-87
2021/12/18 15:14:35;;;;;;;10.32;6.38;;;;;;;;;;10416996;28;20069;-87
2021/12/18 15:19:37;;;;;;;11.93;6.35;;;;;;;;;;10381557;28;20033;-86
2021/12/18 15:24:40;;;;;;;10.90;6.78;;;;;;;;;;10383619;28;20084;-87
2021/12/18 15:29:44;;;;;;;10.20;6.70;;;;;;;;;;10381197;28;20025;-86
2021/12/18 15:34:49;;;;;;;10.18;7.40;;;;;;;;;;10381063;28;20486;-87
2021/12/18 15:39:49;;;;;;;13.02;7.07;;;;;;;;;;10382051;28;20124;-86
2021/12/18 15:44:49;;;;;;;8.50;7.25;;;;;;;;;;10380872;28;20120;-87
2021/12/18 15:49:50;;;;;;;9.97;6.37;;;;;;;;;;10380868;28;20472;-87
2021/12/18 15:54:51;;;;;;;12.40;6.90;;;;;;;;;;10379711;28;20514;-87
2021/12/18 15:59:52;;;;;;;13.38;7.70;;;;;;;;;;10411039;28;20037;-87
2021/12/18 16:04:52;;;;;;;12.57;7.35;;;;;;;;;;10420001;28;20117;-87
2021/12/18 16:09:54;;;;;;;13.48;7.15;;;;;;;;;;10418455;28;20120;-87
2021/12/18 16:14:54;;;;;;;10.10;6.90;;;;;;;;;;10419840;28;20087;-86
2021/12/18 16:19:54;;;;;;;11.33;7.30;;;;;;;;;;10396788;28;20076;-87
2021/12/18 16:24:55;;;;;;;13.48;7.28;;;;;;;;;;10381088;28;20485;-87
2021/12/18 16:29:55;;;;;;;10.90;7.30;;;;;;;;;;10380644;28;20121;-87
2021/12/18 16:34:56;;;;;;;9.93;7.13;;;;;;;;;;10379224;28;20097;-87
2021/12/18 16:39:58;;;;;;;10.40;7.63;;;;;;;;;;10379227;28;21016;-86
2021/12/18 16:44:59;;;;;;;10.13;7.28;;;;;;;;;;10377604;28;20609;-86
2021/12/18 16:49:59;;;;;;;10.85;7.55;;;;;;;;;;10379736;28;20136;-87
2021/12/18 16:55:00;;;;;;;11.27;8.00;;;;;;;;;;10378081;28;20033;-86
2021/12/18 17:00:00;;;;;;;11.67;7.67;;;;;;;;;;10385215;28;20049;-87
2021/12/18 17:05:01;;;;;;;12.55;7.90;;;;;;;;;;10418574;28;20443;-87
2021/12/18 17:10:03;;;;;;;16.83;8.60;;;;;;;;;;10417695;28;20033;-86
2021/12/18 17:15:05;;;;;;;10.95;7.93;;;;;;;;;;10418996;28;20040;-88
2021/12/18 17:20:08;;;;;;;20.40;9.70;;;;;;;;;;10414718;28;20037;-85
2021/12/18 17:25:09;;;;;;;14.18;8.68;;;;;;;;;;10391110;28;20060;-86
2021/12/18 17:30:13;;;;;;;13.43;8.70;;;;;;;;;;10419446;28;20026;-86
2021/12/18 17:35:13;;;;;;;17.80;8.43;;;;;;;;;;10422329;28;20033;-85
2021/12/18 17:40:24;;;;;;;13.30;8.82;;;;;;;;;;10419859;28;20021;-85
2021/12/18 17:45:25;;;;;;;14.30;9.05;;;;;;;;;;10409076;28;20434;-86
2021/12/18 17:50:26;;;;;;;16.90;9.18;;;;;;;;;;10374979;28;20026;-87
2021/12/18 17:55:29;;;;;;;10.73;8.48;;;;;;;;;;10373715;28;20183;-86
2021/12/18 18:00:30;;;;;;;11.85;8.50;;;;;;;;;;10414725;28;20048;-85
2021/12/18 18:05:31;;;;;;;13.52;9.00;;;;;;;;;;10413280;28;20459;-83
2021/12/18 18:10:46;;;;;;;13.32;8.68;;;;;;;;;;10411279;28;20029;-83
2021/12/18 18:15:47;;;;;;;11.93;8.23;;;;;;;;;;10412639;28;20056;-85
2021/12/18 18:20:49;;;;;;;12.43;8.23;;;;;;;;;;10384430;28;20088;-85
2021/12/18 18:25:50;;;;;;;13.00;9.05;;;;;;;;;;10375885;28;20053;-85
2021/12/18 18:30:51;;;;;;;11.85;8.57;;;;;;;;;;10375247;28;20030;-83
2021/12/18 18:35:51;;;;;;;13.57;8.43;;;;;;;;;;10383544;28;20029;-83
2021/12/18 18:40:52;;;;;;;14.67;8.63;;;;;;;;;;10415051;28;20030;-84
2021/12/18 18:46:05;;;;;;;15.93;9.25;;;;;;;;;;10406171;28;20758;-84
2021/12/18 18:51:07;;;;;;;13.45;8.50;;;;;;;;;;10374699;28;20026;-84
2021/12/18 18:56:08;;;;;;;11.48;9.10;;;;;;;;;;10373740;28;20036;-86
2021/12/18 19:01:09;;;;;;;13.48;8.48;;;;;;;;;;10374120;28;20037;-85
2021/12/18 19:06:10;;;;;;;12.60;9.00;;;;;;;;;;10378933;28;20029;-84
2021/12/18 19:11:12;;;;;;;12.02;8.65;;;;;;;;;;10414796;28;20037;-83
2021/12/18 19:16:12;;;;;;;12.13;8.85;;;;;;;;;;10411124;28;20036;-85
2021/12/18 19:21:14;;;;;;;10.57;8.63;;;;;;;;;;10373526;28;20129;-84
2021/12/18 19:26:14;;;;;;;11.45;8.73;;;;;;;;;;10392207;28;20479;-84
2021/12/18 19:31:15;;;;;;;12.20;8.00;;;;;;;;;;10401881;28;20041;-85
2021/12/18 19:36:16;;;;;;;11.43;9.38;;;;;;;;;;10422335;28;20470;-86
2021/12/18 19:41:16;;;;;;;15.25;8.98;;;;;;;;;;10419002;28;20026;-86
2021/12/18 19:46:16;;;;;;;16.07;8.87;;;;;;;;;;10414842;28;20041;-85
2021/12/18 19:51:19;;;;;;;12.10;9.03;;;;;;;;;;10418765;28;20450;-85
2021/12/18 19:56:19;;;;;;;11.35;8.38;;;;;;;;;;10414294;28;20459;-86
2021/12/18 20:01:20;;;;;;;10.95;8.65;;;;;;;;;;10410260;28;20022;-85
2021/12/18 20:06:21;;;;;;;12.88;8.27;;;;;;;;;;10405925;28;20115;-85
2021/12/18 20:11:23;;;;;;;11.73;8.63;;;;;;;;;;10389017;28;20037;-86
2021/12/18 20:16:24;;;;;;;13.32;8.93;;;;;;;;;;10405586;28;20041;-86
2021/12/18 20:21:24;;;;;;;13.23;8.63;;;;;;;;;;10411917;23;20491;-82
2021/12/18 20:26:25;;;;;;;12.68;8.70;;;;;;;;;;10384278;28;20502;-84
2021/12/18 20:31:25;;;;;;;9.38;8.10;;;;;;;;;;10413451;28;20094;-82
2021/12/18 20:36:27;;;;;;;11.67;8.07;;;;;;;;;;10382464;28;20045;-83
2021/12/18 20:41:27;;;;;;;12.63;8.23;;;;;;;;;;10383011;28;20544;-83
2021/12/18 20:46:28;;;;;;;13.35;8.48;;;;;;;;;;10378183;28;20076;-82
2021/12/18 20:51:31;;;;;;;12.68;8.85;;;;;;;;;;10346403;28;20030;-81
2021/12/18 20:56:31;;;;;;;10.07;8.18;;;;;;;;;;10341365;28;20058;-82
2021/12/18 21:01:32;;;;;;;11.98;8.13;;;;;;;;;;10387574;28;20391;-84
2021/12/18 21:06:34;;;;;;;12.57;8.43;;;;;;;;;;10390476;28;20464;-84
2021/12/18 21:11:35;;;;;;;11.88;8.30;;;;;;;;;;10400356;28;20045;-82
2021/12/18 21:16:37;;;;;;;13.32;8.20;;;;;;;;;;10391209;28;20030;-83
2021/12/18 21:21:38;;;;;;;12.02;8.30;;;;;;;;;;10386858;28;20510;-83
2021/12/18 21:26:38;;;;;;;11.07;7.80;;;;;;;;;;10387323;28;20022;-83
2021/12/18 21:31:39;;;;;;;39.50;8.60;;;;;;;;;;10386331;28;20041;-91
2021/12/18 21:36:39;;;;;;;13.80;8.32;;;;;;;;;;10388079;28;20026;-88
2021/12/18 21:41:41;;;;;;;17.37;8.30;;;;;;;;;;10364132;28;20038;-83
2021/12/18 21:46:42;;;;;;;20.02;9.43;;;;;;;;;;10380667;28;20456;-84
2021/12/18 21:51:42;;;;;;;10.87;8.47;;;;;;;;;;10379610;28;20045;-84
2021/12/18 21:56:44;;;;;;;12.63;8.43;;;;;;;;;;10381828;28;20801;-84
2021/12/18 22:01:44;;;;;;;11.45;7.88;;;;;;;;;;10379002;28;20041;-84
2021/12/18 22:06:46;;;;;;;15.45;8.50;;;;;;;;;;10376726;28;20460;-83
2021/12/18 22:11:50;;;;;;;12.05;7.95;;;;;;;;;;10378252;28;20117;-84
2021/12/18 22:16:53;;;;;;;11.55;8.20;;;;;;;;;;10384156;28;20030;-85
